sensor_id;sensor_type;location;lat;lon;timestamp;P1;durP1;ratioP1;P2;durP2;ratioP2
13319;SDS011;59599;47.608;12.190;2022-11-15T05:00:15;2.70;;;2.30;;
13319;SDS011;59599;47.608;12.190;2022-11-15T05:02:42;5.60;;;3.73;;
13319;SDS011;59599;47.608;12.190;2022-11-15T05:05:26;6.70;;;4.53;;
13319;SDS011;59599;47.608;12.190;2022-11-15T05:07:52;8.30;;;5.07;;
13319;SDS011;59599;47.608;12.190;2022-11-15T05:10:18;5.37;;;3.57;;
13319;SDS011;59599;47.608;12.190;2022-11-15T05:12:43;6.20;;;3.17;;
13319;SDS011;59599;47.608;12.190;2022-11-15T05:15:09;3.73;;;3.30;;
13319;SDS011;59599;47.608;12.190;2022-11-15T05:17:35;4.00;;;2.83;;
13319;SDS011;59599;47.608;12.190;2022-11-15T05:20:00;6.33;;;3.57;;
13319;SDS011;59599;47.608;12.190;2022-11-15T05:22:26;4.20;;;3.60;;
13319;SDS011;59599;47.608;12.190;2022-11-15T05:24:52;4.53;;;3.40;;
13319;SDS011;59599;47.608;12.190;2022-11-15T05:27:17;6.00;;;3.07;;
13319;SDS011;59599;47.608;12.190;2022-11-15T05:29:43;4.53;;;3.07;;
13319;SDS011;59599;47.608;12.190;2022-11-15T05:32:09;5.60;;;3.20;;
13319;SDS011;59599;47.608;12.190;2022-11-15T05:34:36;3.33;;;2.87;;
13319;SDS011;59599;47.608;12.190;2022-11-15T05:37:02;5.47;;;3.27;;
13319;SDS011;59599;47.608;12.190;2022-11-15T05:39:28;3.73;;;3.30;;
13319;SDS011;59599;47.608;12.190;2022-11-15T05:41:55;5.40;;;3.80;;
13319;SDS011;59599;47.608;12.190;2022-11-15T05:44:26;6.57;;;5.17;;
13319;SDS011;59599;47.608;12.190;2022-11-15T05:46:52;6.10;;;5.00;;
13319;SDS011;59599;47.608;12.190;2022-11-15T05:49:20;3.90;;;3.30;;
13319;SDS011;59599;47.608;12.190;2022-11-15T05:51:49;4.50;;;3.23;;
13319;SDS011;59599;47.608;12.190;2022-11-15T05:54:16;7.27;;;2.80;;
13319;SDS011;59599;47.608;12.190;2022-11-15T05:56:42;5.77;;;3.37;;
13319;SDS011;59599;47.608;12.190;2022-11-15T05:59:08;3.87;;;3.03;;
13319;SDS011;59599;47.608;12.190;2022-11-15T06:01:35;4.43;;;3.10;;
13319;SDS011;59599;47.608;12.190;2022-11-15T06:04:02;5.90;;;3.90;;
13319;SDS011;59599;47.608;12.190;2022-11-15T06:06:28;7.20;;;3.97;;
13319;SDS011;59599;47.608;12.190;2022-11-15T06:08:54;3.87;;;2.90;;
13319;SDS011;59599;47.608;12.190;2022-11-15T06:11:19;5.40;;;3.50;;
13319;SDS011;59599;47.608;12.190;2022-11-15T06:13:45;4.93;;;3.40;;
13319;SDS011;59599;47.608;12.190;2022-11-15T06:16:10;5.77;;;2.77;;
13319;SDS011;59599;47.608;12.190;2022-11-15T06:18:36;6.67;;;4.20;;
13319;SDS011;59599;47.608;12.190;2022-11-15T06:21:02;5.67;;;4.00;;
13319;SDS011;59599;47.608;12.190;2022-11-15T06:23:30;8.30;;;5.47;;
13319;SDS011;59599;47.608;12.190;2022-11-15T06:25:57;8.03;;;4.87;;
13319;SDS011;59599;47.608;12.190;2022-11-15T06:28:24;5.00;;;3.00;;
13319;SDS011;59599;47.608;12.190;2022-11-15T06:30:50;7.53;;;3.37;;
13319;SDS011;59599;47.608;12.190;2022-11-15T06:33:15;6.20;;;3.60;;
13319;SDS011;59599;47.608;12.190;2022-11-15T06:35:41;5.33;;;3.20;;
13319;SDS011;59599;47.608;12.190;2022-11-15T06:38:09;6.53;;;3.30;;
13319;SDS011;59599;47.608;12.190;2022-11-15T06:40:36;4.03;;;3.10;;
13319;SDS011;59599;47.608;12.190;2022-11-15T06:43:03;5.37;;;2.80;;
13319;SDS011;59599;47.608;12.190;2022-11-15T06:45:29;4.90;;;3.13;;
13319;SDS011;59599;47.608;12.190;2022-11-15T06:47:55;5.43;;;4.30;;
13319;SDS011;59599;47.608;12.190;2022-11-15T06:50:21;7.27;;;4.97;;
13319;SDS011;59599;47.608;12.190;2022-11-15T06:52:46;10.17;;;5.27;;
13319;SDS011;59599;47.608;12.190;2022-11-15T06:55:12;11.03;;;4.60;;
13319;SDS011;59599;47.608;12.190;2022-11-15T06:57:45;7.07;;;4.57;;
13319;SDS011;59599;47.608;12.190;2022-11-15T07:00:15;10.50;;;4.97;;
13319;SDS011;59599;47.608;12.190;2022-11-15T07:02:43;6.13;;;4.07;;
13319;SDS011;59599;47.608;12.190;2022-11-15T07:05:08;7.03;;;3.80;;
13319;SDS011;59599;47.608;12.190;2022-11-15T07:07:34;5.80;;;4.20;;
13319;SDS011;59599;47.608;12.190;2022-11-15T07:10:00;6.77;;;4.10;;
13319;SDS011;59599;47.608;12.190;2022-11-15T07:12:25;5.47;;;4.30;;
13319;SDS011;59599;47.608;12.190;2022-11-15T07:14:51;5.57;;;4.00;;
13319;SDS011;59599;47.608;12.190;2022-11-15T07:17:16;6.57;;;3.97;;
13319;SDS011;59599;47.608;12.190;2022-11-15T07:19:42;4.50;;;3.97;;
13319;SDS011;59599;47.608;12.190;2022-11-15T07:22:07;4.50;;;3.30;;
13319;SDS011;59599;47.608;12.190;2022-11-15T07:24:33;5.93;;;3.80;;
13319;SDS011;59599;47.608;12.190;2022-11-15T07:26:58;5.07;;;4.10;;
13319;SDS011;59599;47.608;12.190;2022-11-15T07:29:24;4.00;;;3.57;;
13319;SDS011;59599;47.608;12.190;2022-11-15T07:31:49;5.83;;;3.57;;
13319;SDS011;59599;47.608;12.190;2022-11-15T07:34:15;4.60;;;3.13;;
13319;SDS011;59599;47.608;12.190;2022-11-15T07:36:41;7.33;;;3.90;;
13319;SDS011;59599;47.608;12.190;2022-11-15T07:39:07;7.13;;;3.47;;
13319;SDS011;59599;47.608;12.190;2022-11-15T07:41:34;3.63;;;3.00;;
13319;SDS011;59599;47.608;12.190;2022-11-15T07:44:00;5.70;;;3.40;;
13319;SDS011;59599;47.608;12.190;2022-11-15T07:46:26;5.83;;;4.03;;
13319;SDS011;59599;47.608;12.190;2022-11-15T07:48:52;6.53;;;3.87;;
13319;SDS011;59599;47.608;12.190;2022-11-15T07:51:17;6.57;;;4.00;;
13319;SDS011;59599;47.608;12.190;2022-11-15T07:53:43;7.87;;;4.20;;
13319;SDS011;59599;47.608;12.190;2022-11-15T07:56:09;9.83;;;4.00;;
13319;SDS011;59599;47.608;12.190;2022-11-15T07:58:35;5.73;;;3.93;;
13319;SDS011;59599;47.608;12.190;2022-11-15T08:01:05;6.37;;;4.10;;
13319;SDS011;59599;47.608;12.190;2022-11-15T08:03:31;5.27;;;3.47;;
13319;SDS011;59599;47.608;12.190;2022-11-15T08:05:57;5.33;;;3.30;;
13319;SDS011;59599;47.608;12.190;2022-11-15T08:08:23;6.07;;;3.60;;
13319;SDS011;59599;47.608;12.190;2022-11-15T08:10:49;3.57;;;3.10;;
13319;SDS011;59599;47.608;12.190;2022-11-15T08:13:15;5.60;;;3.30;;
13319;SDS011;59599;47.608;12.190;2022-11-15T08:15:41;4.17;;;3.40;;
13319;SDS011;59599;47.608;12.190;2022-11-15T08:18:14;6.43;;;3.77;;
13319;SDS011;59599;47.608;12.190;2022-11-15T08:20:41;4.37;;;2.87;;
13319;SDS011;59599;47.608;12.190;2022-11-15T08:23:07;3.90;;;3.17;;
13319;SDS011;59599;47.608;12.190;2022-11-15T08:25:34;5.60;;;3.30;;
13319;SDS011;59599;47.608;12.190;2022-11-15T08:28:02;5.73;;;3.40;;
13319;SDS011;59599;47.608;12.190;2022-11-15T08:30:30;6.60;;;4.13;;
13319;SDS011;59599;47.608;12.190;2022-11-15T08:32:59;6.70;;;4.13;;
13319;SDS011;59599;47.608;12.190;2022-11-15T08:35:24;4.33;;;3.37;;
13319;SDS011;59599;47.608;12.190;2022-11-15T08:37:51;6.30;;;3.60;;
13319;SDS011;59599;47.608;12.190;2022-11-15T08:40:18;5.03;;;3.20;;
13319;SDS011;59599;47.608;12.190;2022-11-15T08:42:45;4.83;;;3.17;;
13319;SDS011;59599;47.608;12.190;2022-11-15T08:45:11;3.67;;;2.90;;
13319;SDS011;59599;47.608;12.190;2022-11-15T08:47:37;4.13;;;2.90;;
13319;SDS011;59599;47.608;12.190;2022-11-15T08:50:03;3.73;;;2.93;;
13319;SDS011;59599;47.608;12.190;2022-11-15T08:52:29;7.63;;;4.70;;
13319;SDS011;59599;47.608;12.190;2022-11-15T08:54:54;6.97;;;5.10;;
13319;SDS011;59599;47.608;12.190;2022-11-15T08:57:20;4.80;;;3.83;;
13319;SDS011;59599;47.608;12.190;2022-11-15T08:59:45;5.83;;;4.37;;
13319;SDS011;59599;47.608;12.190;2022-11-15T09:02:12;4.83;;;4.00;;
13319;SDS011;59599;47.608;12.190;2022-11-15T09:04:39;7.17;;;5.13;;
13319;SDS011;59599;47.608;12.190;2022-11-15T09:07:10;9.27;;;6.07;;
13319;SDS011;59599;47.608;12.190;2022-11-15T09:09:36;5.33;;;3.90;;
13319;SDS011;59599;47.608;12.190;2022-11-15T09:12:02;4.73;;;3.63;;
13319;SDS011;59599;47.608;12.190;2022-11-15T09:14:29;7.37;;;2.77;;
13319;SDS011;59599;47.608;12.190;2022-11-15T09:16:54;4.27;;;3.13;;
13319;SDS011;59599;47.608;12.190;2022-11-15T09:19:20;3.70;;;3.00;;
13319;SDS011;59599;47.608;12.190;2022-11-15T09:21:46;3.70;;;2.30;;
13319;SDS011;59599;47.608;12.190;2022-11-15T09:24:12;3.93;;;2.47;;
13319;SDS011;59599;47.608;12.190;2022-11-15T09:26:37;5.67;;;2.70;;
13319;SDS011;59599;47.608;12.190;2022-11-15T09:29:03;2.83;;;2.40;;
13319;SDS011;59599;47.608;12.190;2022-11-15T09:31:29;4.20;;;2.60;;
13319;SDS011;59599;47.608;12.190;2022-11-15T09:33:54;3.63;;;2.53;;
13319;SDS011;59599;47.608;12.190;2022-11-15T09:36:20;5.73;;;2.70;;
13319;SDS011;59599;47.608;12.190;2022-11-15T09:38:46;3.17;;;2.60;;
13319;SDS011;59599;47.608;12.190;2022-11-15T09:46:40;3.17;;;2.50;;
13319;SDS011;59599;47.608;12.190;2022-11-15T09:49:16;5.23;;;2.40;;
13319;SDS011;59599;47.608;12.190;2022-11-15T09:51:47;9.67;;;2.90;;
13319;SDS011;59599;47.608;12.190;2022-11-15T09:56:50;4.07;;;2.47;;
13319;SDS011;59599;47.608;12.190;2022-11-15T09:59:35;3.33;;;2.20;;
13319;SDS011;59599;47.608;12.190;2022-11-15T10:05:20;6.13;;;2.40;;
13319;SDS011;59599;47.608;12.190;2022-11-15T10:10:47;4.93;;;2.10;;
13319;SDS011;59599;47.608;12.190;2022-11-15T10:13:18;3.20;;;2.17;;
13319;SDS011;59599;47.608;12.190;2022-11-15T10:15:47;1.97;;;1.60;;
13319;SDS011;59599;47.608;12.190;2022-11-15T10:18:34;3.40;;;1.87;;
13319;SDS011;59599;47.608;12.190;2022-11-15T10:21:06;3.57;;;1.70;;
13319;SDS011;59599;47.608;12.190;2022-11-15T10:23:41;2.53;;;1.63;;
13319;SDS011;59599;47.608;12.190;2022-11-15T10:26:08;2.53;;;2.07;;
13319;SDS011;59599;47.608;12.190;2022-11-15T10:28:39;2.70;;;1.70;;
13319;SDS011;59599;47.608;12.190;2022-11-15T10:31:11;1.87;;;1.63;;
13319;SDS011;59599;47.608;12.190;2022-11-15T10:33:48;2.10;;;1.60;;
13319;SDS011;59599;47.608;12.190;2022-11-15T10:36:15;2.90;;;1.50;;
13319;SDS011;59599;47.608;12.190;2022-11-15T10:41:14;2.90;;;2.03;;
13319;SDS011;59599;47.608;12.190;2022-11-15T10:46:32;5.07;;;1.87;;
13319;SDS011;59599;47.608;12.190;2022-11-15T10:52:02;3.43;;;1.53;;
13319;SDS011;59599;47.608;12.190;2022-11-15T10:57:24;2.50;;;1.17;;
13319;SDS011;59599;47.608;12.190;2022-11-15T11:00:07;1.60;;;1.30;;
13319;SDS011;59599;47.608;12.190;2022-11-15T11:02:57;1.60;;;1.23;;
13319;SDS011;59599;47.608;12.190;2022-11-15T11:05:36;4.30;;;1.67;;
13319;SDS011;59599;47.608;12.190;2022-11-15T11:08:04;2.50;;;1.40;;
13319;SDS011;59599;47.608;12.190;2022-11-15T11:10:46;1.43;;;1.13;;
13319;SDS011;59599;47.608;12.190;2022-11-15T11:13:21;1.30;;;1.17;;
13319;SDS011;59599;47.608;12.190;2022-11-15T11:15:49;3.23;;;1.43;;
13319;SDS011;59599;47.608;12.190;2022-11-15T11:18:35;2.57;;;1.20;;
13319;SDS011;59599;47.608;12.190;2022-11-15T11:21:17;1.60;;;1.30;;
13319;SDS011;59599;47.608;12.190;2022-11-15T11:23:58;2.03;;;1.50;;
13319;SDS011;59599;47.608;12.190;2022-11-15T11:26:35;2.07;;;1.30;;
13319;SDS011;59599;47.608;12.190;2022-11-15T11:49:06;4.00;;;1.53;;
13319;SDS011;59599;47.608;12.190;2022-11-15T11:51:56;4.03;;;1.37;;
13319;SDS011;59599;47.608;12.190;2022-11-15T11:54:31;2.07;;;1.47;;
13319;SDS011;59599;47.608;12.190;2022-11-15T11:57:12;1.87;;;1.70;;
13319;SDS011;59599;47.608;12.190;2022-11-15T12:00:09;2.53;;;1.47;;
13319;SDS011;59599;47.608;12.190;2022-11-15T12:03:26;2.30;;;1.50;;
13319;SDS011;59599;47.608;12.190;2022-11-15T12:05:38;2.07;;;1.50;;
13319;SDS011;59599;47.608;12.190;2022-11-15T12:08:24;2.73;;;1.70;;
13319;SDS011;59599;47.608;12.190;2022-11-15T12:11:10;2.53;;;1.70;;
13319;SDS011;59599;47.608;12.190;2022-11-15T12:14:03;2.17;;;1.83;;
13319;SDS011;59599;47.608;12.190;2022-11-15T12:16:42;2.63;;;1.80;;
13319;SDS011;59599;47.608;12.190;2022-11-15T12:19:08;4.87;;;1.50;;
13319;SDS011;59599;47.608;12.190;2022-11-15T12:22:17;1.70;;;1.20;;
13319;SDS011;59599;47.608;12.190;2022-11-15T12:24:41;2.57;;;1.43;;
13319;SDS011;59599;47.608;12.190;2022-11-15T12:29:49;4.93;;;2.00;;
13319;SDS011;59599;47.608;12.190;2022-11-15T12:32:27;3.97;;;2.00;;
13319;SDS011;59599;47.608;12.190;2022-11-15T12:34:55;6.38;;;2.00;;
13319;SDS011;59599;47.608;12.190;2022-11-15T12:37:46;4.25;;;1.95;;
13319;SDS011;59599;47.608;12.190;2022-11-15T12:43:05;7.70;;;1.88;;
13319;SDS011;59599;47.608;12.190;2022-11-15T12:45:39;4.10;;;2.30;;
13319;SDS011;59599;47.608;12.190;2022-11-15T12:51:01;2.83;;;1.58;;
13319;SDS011;59599;47.608;12.190;2022-11-15T12:53:30;3.38;;;1.83;;
13319;SDS011;59599;47.608;12.190;2022-11-15T13:06:47;2.88;;;1.65;;
13319;SDS011;59599;47.608;12.190;2022-11-15T13:12:06;3.45;;;1.70;;
13319;SDS011;59599;47.608;12.190;2022-11-15T13:19:41;3.70;;;1.98;;
13319;SDS011;59599;47.608;12.190;2022-11-15T13:22:11;1.73;;;1.45;;
13319;SDS011;59599;47.608;12.190;2022-11-15T13:24:55;3.10;;;1.52;;
13319;SDS011;59599;47.608;12.190;2022-11-15T13:27:21;2.05;;;1.30;;
13319;SDS011;59599;47.608;12.190;2022-11-15T13:29:47;3.03;;;1.80;;
13319;SDS011;59599;47.608;12.190;2022-11-15T13:32:13;2.45;;;1.50;;
13319;SDS011;59599;47.608;12.190;2022-11-15T13:34:43;2.28;;;1.50;;
13319;SDS011;59599;47.608;12.190;2022-11-15T13:39:46;1.98;;;1.38;;
13319;SDS011;59599;47.608;12.190;2022-11-15T13:42:17;3.92;;;1.48;;
13319;SDS011;59599;47.608;12.190;2022-11-15T13:44:58;2.70;;;1.60;;
13319;SDS011;59599;47.608;12.190;2022-11-15T13:47:26;2.65;;;1.63;;
13319;SDS011;59599;47.608;12.190;2022-11-15T13:49:52;3.10;;;1.65;;
13319;SDS011;59599;47.608;12.190;2022-11-15T13:52:18;1.55;;;1.40;;
13319;SDS011;59599;47.608;12.190;2022-11-15T14:02:55;5.65;;;1.60;;
13319;SDS011;59599;47.608;12.190;2022-11-15T14:05:22;2.50;;;1.63;;
13319;SDS011;59599;47.608;12.190;2022-11-15T14:07:56;4.90;;;1.40;;
13319;SDS011;59599;47.608;12.190;2022-11-15T14:10:33;1.80;;;1.40;;
13319;SDS011;59599;47.608;12.190;2022-11-15T14:13:01;2.05;;;1.63;;
13319;SDS011;59599;47.608;12.190;2022-11-15T14:15:32;3.55;;;2.47;;
13319;SDS011;59599;47.608;12.190;2022-11-15T14:18:00;11.65;;;6.03;;
13319;SDS011;59599;47.608;12.190;2022-11-15T14:23:00;8.75;;;4.85;;
13319;SDS011;59599;47.608;12.190;2022-11-15T14:25:29;6.97;;;2.70;;
13319;SDS011;59599;47.608;12.190;2022-11-15T14:30:41;5.55;;;1.80;;
13319;SDS011;59599;47.608;12.190;2022-11-15T14:35:49;2.08;;;1.58;;
13319;SDS011;59599;47.608;12.190;2022-11-15T14:38:15;9.68;;;2.00;;
13319;SDS011;59599;47.608;12.190;2022-11-15T14:40:42;6.25;;;1.90;;
13319;SDS011;59599;47.608;12.190;2022-11-15T14:43:11;2.42;;;1.50;;
13319;SDS011;59599;47.608;12.190;2022-11-15T14:45:38;7.93;;;2.10;;
13319;SDS011;59599;47.608;12.190;2022-11-15T14:48:03;9.68;;;1.90;;
13319;SDS011;59599;47.608;12.190;2022-11-15T14:50:29;4.57;;;1.88;;
13319;SDS011;59599;47.608;12.190;2022-11-15T14:52:56;3.25;;;1.77;;
13319;SDS011;59599;47.608;12.190;2022-11-15T14:55:26;1.92;;;1.58;;
13319;SDS011;59599;47.608;12.190;2022-11-15T14:57:53;3.72;;;2.10;;
13319;SDS011;59599;47.608;12.190;2022-11-15T15:00:23;5.63;;;2.72;;
13319;SDS011;59599;47.608;12.190;2022-11-15T15:02:49;9.00;;;2.93;;
13319;SDS011;59599;47.608;12.190;2022-11-15T15:05:18;4.63;;;2.63;;
13319;SDS011;59599;47.608;12.190;2022-11-15T15:07:47;3.40;;;2.07;;
13319;SDS011;59599;47.608;12.190;2022-11-15T15:10:13;7.10;;;3.77;;
13319;SDS011;59599;47.608;12.190;2022-11-15T15:12:40;5.07;;;3.77;;
13319;SDS011;59599;47.608;12.190;2022-11-15T15:15:09;5.73;;;3.33;;
13319;SDS011;59599;47.608;12.190;2022-11-15T15:17:38;6.07;;;3.77;;
13319;SDS011;59599;47.608;12.190;2022-11-15T15:20:03;8.90;;;4.13;;
13319;SDS011;59599;47.608;12.190;2022-11-15T15:22:29;4.53;;;3.43;;
13319;SDS011;59599;47.608;12.190;2022-11-15T15:24:55;5.83;;;3.77;;
13319;SDS011;59599;47.608;12.190;2022-11-15T15:27:21;8.13;;;4.13;;
13319;SDS011;59599;47.608;12.190;2022-11-15T15:29:46;5.93;;;3.53;;
13319;SDS011;59599;47.608;12.190;2022-11-15T15:32:12;8.07;;;3.87;;
13319;SDS011;59599;47.608;12.190;2022-11-15T15:34:38;6.70;;;4.53;;
13319;SDS011;59599;47.608;12.190;2022-11-15T15:37:23;5.77;;;4.27;;
13319;SDS011;59599;47.608;12.190;2022-11-15T15:39:54;6.03;;;4.10;;
13319;SDS011;59599;47.608;12.190;2022-11-15T15:42:21;6.10;;;4.10;;
13319;SDS011;59599;47.608;12.190;2022-11-15T15:44:47;9.20;;;5.27;;
13319;SDS011;59599;47.608;12.190;2022-11-15T15:47:15;6.90;;;4.60;;
13319;SDS011;59599;47.608;12.190;2022-11-15T15:49:42;8.50;;;5.30;;
13319;SDS011;59599;47.608;12.190;2022-11-15T15:52:08;9.17;;;4.43;;
13319;SDS011;59599;47.608;12.190;2022-11-15T15:54:34;9.40;;;4.80;;
13319;SDS011;59599;47.608;12.190;2022-11-15T15:56:59;10.67;;;4.83;;
13319;SDS011;59599;47.608;12.190;2022-11-15T15:59:25;16.30;;;5.80;;
13319;SDS011;59599;47.608;12.190;2022-11-15T16:01:50;13.33;;;6.53;;
13319;SDS011;59599;47.608;12.190;2022-11-15T16:04:16;14.30;;;5.23;;
13319;SDS011;59599;47.608;12.190;2022-11-15T16:06:43;10.10;;;6.97;;
13319;SDS011;59599;47.608;12.190;2022-11-15T16:09:12;14.17;;;8.77;;
13319;SDS011;59599;47.608;12.190;2022-11-15T16:11:39;20.80;;;10.43;;
13319;SDS011;59599;47.608;12.190;2022-11-15T16:14:06;14.03;;;9.43;;
13319;SDS011;59599;47.608;12.190;2022-11-15T16:16:32;16.67;;;10.70;;
13319;SDS011;59599;47.608;12.190;2022-11-15T16:18:59;19.90;;;11.70;;
13319;SDS011;59599;47.608;12.190;2022-11-15T16:21:25;20.38;;;12.52;;
13319;SDS011;59599;47.608;12.190;2022-11-15T16:23:51;17.80;;;11.80;;
13319;SDS011;59599;47.608;12.190;2022-11-15T16:26:21;24.30;;;12.47;;
13319;SDS011;59599;47.608;12.190;2022-11-15T16:28:51;19.83;;;12.37;;
13319;SDS011;59599;47.608;12.190;2022-11-15T16:31:17;22.57;;;12.77;;
13319;SDS011;59599;47.608;12.190;2022-11-15T16:33:45;21.27;;;12.63;;
13319;SDS011;59599;47.608;12.190;2022-11-15T16:36:17;26.60;;;13.87;;
13319;SDS011;59599;47.608;12.190;2022-11-15T16:38:48;24.07;;;15.87;;
13319;SDS011;59599;47.608;12.190;2022-11-15T16:41:15;28.70;;;18.30;;
13319;SDS011;59599;47.608;12.190;2022-11-15T16:43:46;33.67;;;19.63;;
13319;SDS011;59599;47.608;12.190;2022-11-15T16:46:16;33.50;;;20.60;;
13319;SDS011;59599;47.608;12.190;2022-11-15T16:48:49;26.40;;;18.10;;
13319;SDS011;59599;47.608;12.190;2022-11-15T16:51:15;26.93;;;16.67;;
13319;SDS011;59599;47.608;12.190;2022-11-15T16:53:41;23.93;;;15.67;;
13319;SDS011;59599;47.608;12.190;2022-11-15T16:58:44;29.73;;;18.90;;
13319;SDS011;59599;47.608;12.190;2022-11-15T17:01:15;23.43;;;15.80;;
13319;SDS011;59599;47.608;12.190;2022-11-15T17:03:47;29.73;;;15.50;;
13319;SDS011;59599;47.608;12.190;2022-11-15T17:06:13;23.17;;;14.53;;
13319;SDS011;59599;47.608;12.190;2022-11-15T17:08:39;18.43;;;12.53;;
13319;SDS011;59599;47.608;12.190;2022-11-15T17:11:05;24.67;;;15.07;;
13319;SDS011;59599;47.608;12.190;2022-11-15T17:13:31;26.03;;;17.03;;
13319;SDS011;59599;47.608;12.190;2022-11-15T17:16:08;31.53;;;18.50;;
13319;SDS011;59599;47.608;12.190;2022-11-15T17:18:35;32.17;;;20.87;;
13319;SDS011;59599;47.608;12.190;2022-11-15T17:21:08;38.60;;;21.23;;
13319;SDS011;59599;47.608;12.190;2022-11-15T17:23:38;35.10;;;24.00;;
13319;SDS011;59599;47.608;12.190;2022-11-15T17:26:04;42.13;;;28.33;;
13319;SDS011;59599;47.608;12.190;2022-11-15T17:28:30;40.27;;;28.17;;
13319;SDS011;59599;47.608;12.190;2022-11-15T17:30:56;35.90;;;24.77;;
13319;SDS011;59599;47.608;12.190;2022-11-15T17:33:22;37.17;;;22.60;;
13319;SDS011;59599;47.608;12.190;2022-11-15T17:35:55;30.30;;;20.23;;
13319;SDS011;59599;47.608;12.190;2022-11-15T17:38:22;45.20;;;25.23;;
13319;SDS011;59599;47.608;12.190;2022-11-15T17:40:47;36.70;;;23.87;;
13319;SDS011;59599;47.608;12.190;2022-11-15T17:43:13;29.53;;;21.23;;
13319;SDS011;59599;47.608;12.190;2022-11-15T17:45:41;25.83;;;17.17;;
13319;SDS011;59599;47.608;12.190;2022-11-15T17:48:07;30.37;;;17.50;;
13319;SDS011;59599;47.608;12.190;2022-11-15T17:50:34;26.03;;;17.63;;
13319;SDS011;59599;47.608;12.190;2022-11-15T17:52:59;36.70;;;19.67;;
13319;SDS011;59599;47.608;12.190;2022-11-15T17:55:25;38.60;;;20.20;;
13319;SDS011;59599;47.608;12.190;2022-11-15T17:57:50;33.07;;;20.73;;
13319;SDS011;59599;47.608;12.190;2022-11-15T18:00:17;33.37;;;22.97;;
13319;SDS011;59599;47.608;12.190;2022-11-15T18:02:44;32.40;;;22.27;;
13319;SDS011;59599;47.608;12.190;2022-11-15T18:05:10;33.67;;;21.87;;
13319;SDS011;59599;47.608;12.190;2022-11-15T18:07:35;34.97;;;20.13;;
13319;SDS011;59599;47.608;12.190;2022-11-15T18:10:01;29.67;;;19.97;;
13319;SDS011;59599;47.608;12.190;2022-11-15T18:12:27;26.97;;;18.27;;
13319;SDS011;59599;47.608;12.190;2022-11-15T18:14:52;24.73;;;13.80;;
13319;SDS011;59599;47.608;12.190;2022-11-15T18:17:18;27.67;;;16.17;;
13319;SDS011;59599;47.608;12.190;2022-11-15T18:19:43;27.93;;;17.30;;
13319;SDS011;59599;47.608;12.190;2022-11-15T18:22:09;48.57;;;29.23;;
13319;SDS011;59599;47.608;12.190;2022-11-15T18:24:35;38.03;;;23.47;;
13319;SDS011;59599;47.608;12.190;2022-11-15T18:27:03;40.47;;;26.10;;
13319;SDS011;59599;47.608;12.190;2022-11-15T18:29:30;35.27;;;22.63;;
13319;SDS011;59599;47.608;12.190;2022-11-15T18:31:57;35.80;;;24.47;;
13319;SDS011;59599;47.608;12.190;2022-11-15T18:34:23;36.33;;;23.33;;
13319;SDS011;59599;47.608;12.190;2022-11-15T18:36:55;26.87;;;15.70;;
13319;SDS011;59599;47.608;12.190;2022-11-15T18:39:21;20.33;;;13.17;;
13319;SDS011;59599;47.608;12.190;2022-11-15T18:41:47;23.70;;;13.83;;
13319;SDS011;59599;47.608;12.190;2022-11-15T18:44:13;25.43;;;16.27;;
13319;SDS011;59599;47.608;12.190;2022-11-15T18:46:39;21.80;;;17.00;;
13319;SDS011;59599;47.608;12.190;2022-11-15T18:49:05;27.00;;;15.83;;
13319;SDS011;59599;47.608;12.190;2022-11-15T18:51:34;15.27;;;9.27;;
13319;SDS011;59599;47.608;12.190;2022-11-15T18:54:05;16.07;;;10.10;;
13319;SDS011;59599;47.608;12.190;2022-11-15T18:56:32;14.33;;;9.93;;
13319;SDS011;59599;47.608;12.190;2022-11-15T18:58:58;14.40;;;9.90;;
13319;SDS011;59599;47.608;12.190;2022-11-15T19:01:29;15.50;;;9.57;;
13319;SDS011;59599;47.608;12.190;2022-11-15T19:03:58;14.50;;;9.87;;
13319;SDS011;59599;47.608;12.190;2022-11-15T19:06:38;16.60;;;10.57;;
13319;SDS011;59599;47.608;12.190;2022-11-15T19:09:05;19.97;;;12.77;;
13319;SDS011;59599;47.608;12.190;2022-11-15T19:11:32;16.60;;;11.80;;
13319;SDS011;59599;47.608;12.190;2022-11-15T19:14:01;21.80;;;13.13;;
13319;SDS011;59599;47.608;12.190;2022-11-15T19:16:29;16.33;;;11.07;;
13319;SDS011;59599;47.608;12.190;2022-11-15T19:18:58;22.70;;;12.43;;
13319;SDS011;59599;47.608;12.190;2022-11-15T19:21:25;20.53;;;12.10;;
13319;SDS011;59599;47.608;12.190;2022-11-15T19:23:51;23.30;;;14.10;;
13319;SDS011;59599;47.608;12.190;2022-11-15T19:26:18;19.53;;;11.27;;
13319;SDS011;59599;47.608;12.190;2022-11-15T19:28:48;20.63;;;12.10;;
13319;SDS011;59599;47.608;12.190;2022-11-15T19:31:19;22.77;;;14.37;;
13319;SDS011;59599;47.608;12.190;2022-11-15T19:33:45;24.80;;;15.70;;
13319;SDS011;59599;47.608;12.190;2022-11-15T19:38:39;26.43;;;15.90;;
13319;SDS011;59599;47.608;12.190;2022-11-15T19:41:06;21.83;;;13.87;;
13319;SDS011;59599;47.608;12.190;2022-11-15T19:43:34;20.13;;;12.97;;
13319;SDS011;59599;47.608;12.190;2022-11-15T19:46:02;17.27;;;11.43;;
13319;SDS011;59599;47.608;12.190;2022-11-15T19:48:29;19.43;;;12.77;;
13319;SDS011;59599;47.608;12.190;2022-11-15T19:51:00;17.80;;;11.87;;
13319;SDS011;59599;47.608;12.190;2022-11-15T19:53:27;18.10;;;10.27;;
13319;SDS011;59599;47.608;12.190;2022-11-15T19:55:53;14.60;;;9.00;;
13319;SDS011;59599;47.608;12.190;2022-11-15T19:58:38;15.57;;;9.93;;
13319;SDS011;59599;47.608;12.190;2022-11-15T20:01:11;17.33;;;9.20;;
13319;SDS011;59599;47.608;12.190;2022-11-15T20:03:37;19.17;;;10.73;;
13319;SDS011;59599;47.608;12.190;2022-11-15T20:06:07;30.30;;;19.37;;
13319;SDS011;59599;47.608;12.190;2022-11-15T20:08:41;24.70;;;15.13;;
13319;SDS011;59599;47.608;12.190;2022-11-15T20:11:07;24.47;;;15.60;;
13319;SDS011;59599;47.608;12.190;2022-11-15T20:13:32;36.60;;;22.00;;
13319;SDS011;59599;47.608;12.190;2022-11-15T20:15:58;41.67;;;21.83;;
13319;SDS011;59599;47.608;12.190;2022-11-15T20:18:25;32.83;;;22.13;;
13319;SDS011;59599;47.608;12.190;2022-11-15T20:20:51;42.47;;;23.73;;
13319;SDS011;59599;47.608;12.190;2022-11-15T20:23:17;40.23;;;23.93;;
13319;SDS011;59599;47.608;12.190;2022-11-15T20:25:46;25.93;;;18.07;;
13319;SDS011;59599;47.608;12.190;2022-11-15T20:28:16;21.97;;;14.80;;
13319;SDS011;59599;47.608;12.190;2022-11-15T20:30:46;22.47;;;13.83;;
13319;SDS011;59599;47.608;12.190;2022-11-15T20:33:14;17.67;;;11.57;;
13319;SDS011;59599;47.608;12.190;2022-11-15T20:35:41;20.23;;;12.00;;
13319;SDS011;59599;47.608;12.190;2022-11-15T20:38:08;22.77;;;12.47;;
13319;SDS011;59599;47.608;12.190;2022-11-15T20:40:34;17.83;;;11.30;;
13319;SDS011;59599;47.608;12.190;2022-11-15T20:43:01;11.57;;;8.47;;
13319;SDS011;59599;47.608;12.190;2022-11-15T20:45:27;14.43;;;8.83;;
13319;SDS011;59599;47.608;12.190;2022-11-15T20:47:56;11.50;;;7.53;;
13319;SDS011;59599;47.608;12.190;2022-11-15T20:50:22;17.83;;;10.40;;
13319;SDS011;59599;47.608;12.190;2022-11-15T20:52:49;17.20;;;10.20;;
13319;SDS011;59599;47.608;12.190;2022-11-15T20:55:15;23.23;;;13.33;;
13319;SDS011;59599;47.608;12.190;2022-11-15T20:57:40;17.27;;;10.90;;
13319;SDS011;59599;47.608;12.190;2022-11-15T21:00:06;15.60;;;9.57;;
13319;SDS011;59599;47.608;12.190;2022-11-15T21:02:32;18.17;;;9.27;;
13319;SDS011;59599;47.608;12.190;2022-11-15T21:04:58;14.83;;;10.27;;
13319;SDS011;59599;47.608;12.190;2022-11-15T21:07:23;18.93;;;10.50;;
13319;SDS011;59599;47.608;12.190;2022-11-15T21:09:49;13.83;;;9.27;;